Time;durP1;ratioP1;P1;durP2;ratioP2;P2;SDS_P1;SDS_P2;PMS_P1;PMS_P2;Temp;Humidity;BMP_temperature;BMP_pressure;BME280_temperature;BME280_humidity;BME280_pressure;Samples;Min_cycle;Max_cycle;Signal;HPM_P1;HPM_P2
2021/12/19 00:01:35;;;;;;;;;;;;;;;1.81;64.50;95792.66;5013424;28;1215;-45
2021/12/19 00:09:31;;;;;;;;;;;;;;;2.00;63.35;95789.75;5013656;28;1038;-45
2021/12/19 00:11:58;;;;;;;;;;;;;;;2.00;63.57;95780.03;5013471;28;1090;-45
2021/12/19 00:14:24;;;;;;;;;;;;;;;1.89;64.31;95777.19;5013711;28;978;-45
2021/12/19 00:16:50;;;;;;;;;;;;;;;1.86;64.08;95767.69;5013450;28;1057;-45
2021/12/19 00:19:17;;;;;;;;;;;;;;;1.87;64.18;95763.25;5013311;28;1290;-45
2021/12/19 00:21:44;;;;;;;;;;;;;;;1.78;64.21;95762.00;5013425;28;1050;-45
2021/12/19 00:24:10;;;;;;;;;;;;;;;1.69;64.21;95758.16;5013395;28;1053;-45
2021/12/19 00:26:36;;;;;;;;;;;;;;;1.67;64.00;95752.13;5015705;28;1914;-45
2021/12/19 00:29:03;;;;;;;;;;;;;;;1.55;64.73;95753.69;5017360;28;975;-45
2021/12/19 00:31:30;;;;;;;;;;;;;;;1.63;62.97;95755.91;5017104;28;1889;-45
2021/12/19 00:33:56;;;;;;;;;;;;;;;1.57;63.33;95756.25;5017106;28;1124;-45
2021/12/19 00:36:22;;;;;;;;;;;;;;;1.58;62.88;95746.56;5016960;28;1189;-45
2021/12/19 00:38:49;;;;;;;;;;;;;;;1.49;63.74;95750.59;5017284;28;1034;-45
2021/12/19 00:41:15;;;;;;;;;;;;;;;1.58;62.73;95755.31;5017293;28;1006;-45
2021/12/19 00:43:47;;;;;;;;;;;;;;;1.61;63.01;95760.38;5016738;28;1915;-45
2021/12/19 00:46:14;;;;;;;;;;;;;;;1.65;62.21;95750.50;5016818;28;1910;-45
2021/12/19 00:48:42;;;;;;;;;;;;;;;1.66;61.44;95741.69;5016818;28;1299;-45
2021/12/19 00:51:09;;;;;;;;;;;;;;;1.58;62.31;95739.50;5017017;28;1133;-45
2021/12/19 00:53:35;;;;;;;;;;;;;;;1.55;62.06;95745.78;5017049;28;1061;-45
2021/12/19 00:56:02;;;;;;;;;;;;;;;1.54;62.75;95733.56;5016704;28;1889;-45
2021/12/19 00:58:28;;;;;;;;;;;;;;;1.55;62.06;95734.41;5016541;28;1892;-45
2021/12/19 01:00:54;;;;;;;;;;;;;;;1.50;62.76;95734.69;5016776;28;1021;-45
2021/12/19 01:03:21;;;;;;;;;;;;;;;1.56;62.20;95730.84;5016588;28;1901;-45
2021/12/19 01:05:48;;;;;;;;;;;;;;;1.36;63.02;95726.75;5016709;28;1989;-45
2021/12/19 01:08:14;;;;;;;;;;;;;;;1.40;62.91;95724.78;5016707;28;1215;-45
2021/12/19 01:10:42;;;;;;;;;;;;;;;1.46;62.68;95724.41;5016747;28;1001;-45
2021/12/19 01:13:08;;;;;;;;;;;;;;;1.46;62.67;95721.78;5016353;28;1045;-45
2021/12/19 01:15:34;;;;;;;;;;;;;;;1.39;62.68;95731.00;5016520;28;969;-45
2021/12/19 01:18:01;;;;;;;;;;;;;;;1.31;63.21;95724.41;5016173;28;1246;-45
2021/12/19 01:20:29;;;;;;;;;;;;;;;1.33;62.53;95724.31;5016345;28;1030;-45
2021/12/19 01:22:55;;;;;;;;;;;;;;;1.35;62.87;95718.00;5016507;28;1011;-45
2021/12/19 01:25:21;;;;;;;;;;;;;;;1.31;63.28;95716.50;5016404;28;2009;-45
2021/12/19 01:27:47;;;;;;;;;;;;;;;1.22;63.21;95717.03;5015909;28;1993;-45
2021/12/19 01:30:14;;;;;;;;;;;;;;;1.14;63.69;95709.59;5016284;28;983;-45
2021/12/19 01:32:41;;;;;;;;;;;;;;;1.14;63.71;95703.47;5016042;28;1046;-45
2021/12/19 01:35:08;;;;;;;;;;;;;;;1.19;63.35;95706.66;5016272;28;1136;-45
2021/12/19 01:37:34;;;;;;;;;;;;;;;1.02;65.04;95702.38;5015329;28;1057;-45
2021/12/19 01:40:00;;;;;;;;;;;;;;;0.96;64.56;95706.22;5016194;28;1000;-45
2021/12/19 01:42:34;;;;;;;;;;;;;;;0.88;65.09;95705.00;5015701;28;1088;-45
2021/12/19 01:45:01;;;;;;;;;;;;;;;0.89;65.15;95704.91;5015742;28;959;-45
2021/12/19 01:47:27;;;;;;;;;;;;;;;0.69;66.23;95707.84;5015664;28;1910;-45
2021/12/19 01:49:55;;;;;;;;;;;;;;;0.60;67.04;95703.09;5015697;28;1030;-45
2021/12/19 01:52:21;;;;;;;;;;;;;;;0.58;66.71;95704.00;5015617;28;1203;-45
2021/12/19 01:54:48;;;;;;;;;;;;;;;0.72;65.18;95708.50;5015851;28;1042;-45
2021/12/19 01:57:14;;;;;;;;;;;;;;;0.82;65.36;95702.72;5015425;28;1037;-45
2021/12/19 01:59:40;;;;;;;;;;;;;;;0.74;66.05;95695.22;5015668;28;963;-45
2021/12/19 02:02:06;;;;;;;;;;;;;;;0.54;66.46;95691.97;5015541;28;1038;-45
2021/12/19 02:04:33;;;;;;;;;;;;;;;0.28;67.03;95682.06;5015403;28;1293;-45
2021/12/19 02:07:00;;;;;;;;;;;;;;;0.17;67.16;95682.66;5015306;28;1918;-45
2021/12/19 02:09:26;;;;;;;;;;;;;;;0.02;66.95;95687.00;5015322;28;1042;-45
2021/12/19 02:11:52;;;;;;;;;;;;;;;0.05;68.68;95685.97;5015247;28;1041;-45
2021/12/19 02:14:20;;;;;;;;;;;;;;;0.10;68.77;95678.69;5015474;28;1038;-45
2021/12/19 02:16:47;;;;;;;;;;;;;;;-0.01;68.42;95682.72;5015117;28;1983;-45
2021/12/19 02:19:13;;;;;;;;;;;;;;;0.00;68.46;95678.34;5014939;28;1118;-45
2021/12/19 02:21:39;;;;;;;;;;;;;;;0.02;69.35;95681.72;5015124;28;1043;-45
2021/12/19 02:24:07;;;;;;;;;;;;;;;0.03;69.41;95683.41;5015289;28;1032;-45
2021/12/19 02:26:34;;;;;;;;;;;;;;;-0.07;69.20;95683.06;5015100;28;1910;-45
2021/12/19 02:29:00;;;;;;;;;;;;;;;-0.25;69.83;95682.31;5015058;28;970;-45
2021/12/19 02:31:28;;;;;;;;;;;;;;;-0.28;70.90;95674.56;5014763;28;1117;-45
2021/12/19 02:34:19;;;;;;;;;;;;;;;-0.32;70.96;95680.94;5015169;28;1208;-45
2021/12/19 02:37:04;;;;;;;;;;;;;;;0.11;67.70;95683.00;5014668;28;1788;-45
2021/12/19 02:50:25;;;;;;;;;;;;;;;0.03;69.18;95672.06;5013667;28;1029;-45
2021/12/19 02:52:52;;;;;;;;;;;;;;;0.10;68.61;95684.78;5014532;28;943;-45
2021/12/19 02:55:18;;;;;;;;;;;;;;;0.15;68.31;95687.16;5014575;28;1054;-45
2021/12/19 02:57:46;;;;;;;;;;;;;;;0.13;68.42;95687.25;5014771;28;1046;-45
2021/12/19 03:00:14;;;;;;;;;;;;;;;0.15;67.89;95680.13;5014418;28;1001;-45
2021/12/19 03:02:40;;;;;;;;;;;;;;;0.16;67.89;95681.81;5014339;28;1068;-45
2021/12/19 03:05:06;;;;;;;;;;;;;;;0.12;68.66;95680.28;5014669;28;1046;-45
2021/12/19 03:07:38;;;;;;;;;;;;;;;0.09;69.14;95685.69;5014577;28;1910;-45
2021/12/19 03:18:23;;;;;;;;;;;;;;;-0.12;70.14;95671.09;5014190;28;1371;-45
2021/12/19 03:20:49;;;;;;;;;;;;;;;-0.31;70.69;95666.84;5014404;28;1001;-45
2021/12/19 03:23:15;;;;;;;;;;;;;;;-0.36;71.14;95674.16;5014210;28;1061;-45
2021/12/19 03:25:41;;;;;;;;;;;;;;;-0.43;71.63;95670.97;5014252;28;1309;-45
2021/12/19 03:28:09;;;;;;;;;;;;;;;-0.35;71.79;95667.94;5013919;28;1980;-45
2021/12/19 03:30:35;;;;;;;;;;;;;;;-0.16;70.83;95669.59;5013988;28;1029;-45
2021/12/19 03:33:01;;;;;;;;;;;;;;;0.02;69.36;95671.22;5014168;28;966;-45
2021/12/19 03:35:29;;;;;;;;;;;;;;;0.31;67.47;95669.59;5014208;28;1008;-45
2021/12/19 03:37:56;;;;;;;;;;;;;;;0.51;66.56;95665.84;5013695;28;1080;-45
2021/12/19 03:40:24;;;;;;;;;;;;;;;0.60;65.78;95659.19;5014118;28;1039;-45
2021/12/19 03:42:51;;;;;;;;;;;;;;;0.69;65.22;95663.09;5013814;28;1023;-45
2021/12/19 03:45:19;;;;;;;;;;;;;;;0.78;64.25;95655.50;5013969;28;1033;-45
2021/12/19 03:47:45;;;;;;;;;;;;;;;0.70;64.37;95646.34;5014049;28;1903;-45
2021/12/19 03:50:14;;;;;;;;;;;;;;;0.58;64.98;95648.75;5013844;28;1026;-45
2021/12/19 03:52:40;;;;;;;;;;;;;;;0.54;66.05;95643.75;5013662;28;970;-45
2021/12/19 03:55:06;;;;;;;;;;;;;;;0.60;64.96;95630.25;5013643;28;1208;-45
2021/12/19 03:57:32;;;;;;;;;;;;;;;0.63;65.12;95631.88;5013691;28;1022;-45
2021/12/19 03:59:59;;;;;;;;;;;;;;;0.49;65.15;95630.84;5013834;28;1017;-45
2021/12/19 04:02:26;;;;;;;;;;;;;;;0.41;66.32;95627.81;5016850;28;1881;-45
2021/12/19 04:04:54;;;;;;;;;;;;;;;0.37;67.90;95628.94;5017754;28;975;-45
2021/12/19 04:07:20;;;;;;;;;;;;;;;0.18;67.51;95631.75;5017698;28;1995;-45
2021/12/19 04:09:47;;;;;;;;;;;;;;;-0.09;69.69;95636.78;5017809;28;958;-45
2021/12/19 04:12:13;;;;;;;;;;;;;;;-0.10;68.76;95629.81;5017799;28;986;-45
2021/12/19 04:14:40;;;;;;;;;;;;;;;-0.10;67.73;95629.81;5017653;28;970;-45
2021/12/19 04:17:06;;;;;;;;;;;;;;;-0.13;68.79;95629.97;5017487;28;963;-45
2021/12/19 04:19:32;;;;;;;;;;;;;;;-0.12;68.68;95623.78;5017267;28;1102;-45
2021/12/19 04:21:59;;;;;;;;;;;;;;;-0.01;67.66;95621.41;5017207;28;1872;-45
2021/12/19 04:24:28;;;;;;;;;;;;;;;-0.03;67.49;95615.41;5017316;28;989;-45
2021/12/19 04:26:55;;;;;;;;;;;;;;;-0.08;66.89;95617.44;5017988;28;1910;-45
2021/12/19 04:29:23;;;;;;;;;;;;;;;-0.29;68.25;95619.47;5017272;28;1122;-45
2021/12/19 04:31:50;;;;;;;;;;;;;;;-0.51;69.21;95607.50;5017121;28;1100;-45
2021/12/19 04:34:17;;;;;;;;;;;;;;;-0.58;69.48;95611.38;5017154;28;1042;-45
2021/12/19 04:36:46;;;;;;;;;;;;;;;-0.69;69.02;95611.94;5017422;28;1231;-45
2021/12/19 04:42:07;;;;;;;;;;;;;;;-0.84;71.32;95608.34;5017232;28;1032;-45
2021/12/19 05:03:48;;;;;;;;;;;;;;;-1.21;69.93;95598.94;5016850;28;990;-44
2021/12/19 05:14:38;;;;;;;;;;;;;;;-0.96;71.18;95595.03;5016227;28;1029;-45
2021/12/19 05:17:10;;;;;;;;;;;;;;;-0.69;70.33;95600.59;5016365;28;1109;-45
2021/12/19 05:19:47;;;;;;;;;;;;;;;-0.72;69.22;95601.63;5016057;28;1347;-44
2021/12/19 05:22:13;;;;;;;;;;;;;;;-0.87;70.03;95597.19;5016323;28;1140;-45
2021/12/19 05:24:47;;;;;;;;;;;;;;;-0.84;70.23;95594.38;5016230;28;1089;-45
2021/12/19 05:27:13;;;;;;;;;;;;;;;-0.82;69.60;95595.97;5016421;28;1902;-45
2021/12/19 05:29:40;;;;;;;;;;;;;;;-0.75;70.14;95596.53;5015954;28;962;-45
2021/12/19 05:32:06;;;;;;;;;;;;;;;-0.64;68.75;95604.69;5016033;28;1042;-45
2021/12/19 05:34:33;;;;;;;;;;;;;;;-0.88;69.24;95605.97;5015997;28;1029;-45
2021/12/19 05:45:14;;;;;;;;;;;;;;;-1.53;71.36;95609.28;5016094;28;1037;-45
2021/12/19 05:47:44;;;;;;;;;;;;;;;-1.49;71.32;95607.34;5015521;28;1895;-45
2021/12/19 05:50:10;;;;;;;;;;;;;;;-1.43;72.07;95604.41;5015789;28;1109;-45
2021/12/19 05:52:36;;;;;;;;;;;;;;;-1.43;73.11;95605.25;5015969;28;1061;-45
2021/12/19 05:55:03;;;;;;;;;;;;;;;-1.44;72.88;95605.31;5015732;28;1038;-45
2021/12/19 05:57:29;;;;;;;;;;;;;;;-1.57;72.06;95607.75;5015804;28;998;-45
2021/12/19 05:59:55;;;;;;;;;;;;;;;-1.75;72.52;95603.41;5015525;28;1109;-45
2021/12/19 06:02:21;;;;;;;;;;;;;;;-1.98;72.64;95603.56;5015268;28;1041;-45
2021/12/19 06:04:47;;;;;;;;;;;;;;;-2.13;72.88;95609.56;5015705;28;1054;-45
2021/12/19 06:07:13;;;;;;;;;;;;;;;-2.07;73.78;95605.81;5015608;28;1985;-45
2021/12/19 06:09:39;;;;;;;;;;;;;;;-1.86;73.88;95601.28;5015606;28;1029;-45
2021/12/19 06:12:05;;;;;;;;;;;;;;;-1.82;72.29;95602.84;5015584;28;1046;-45
2021/12/19 06:14:33;;;;;;;;;;;;;;;-1.86;72.15;95601.28;5015328;28;982;-45
2021/12/19 06:17:00;;;;;;;;;;;;;;;-1.97;72.61;95607.06;5015089;28;1018;-46
2021/12/19 06:19:27;;;;;;;;;;;;;;;-2.11;72.64;95597.22;5015094;28;1330;-46
2021/12/19 06:21:53;;;;;;;;;;;;;;;-2.13;72.66;95591.22;5015350;28;1087;-45
2021/12/19 06:24:20;;;;;;;;;;;;;;;-2.30;73.56;95593.78;5014865;28;1089;-45
2021/12/19 06:26:46;;;;;;;;;;;;;;;-2.42;73.21;95590.84;5015439;28;1910;-45
2021/12/19 06:29:13;;;;;;;;;;;;;;;-2.47;73.54;95584.09;5015249;28;979;-45
2021/12/19 06:31:39;;;;;;;;;;;;;;;-2.33;73.72;95593.94;5014863;28;1044;-45
2021/12/19 06:34:05;;;;;;;;;;;;;;;-1.98;73.89;95587.00;5015193;28;1040;-45
2021/12/19 06:36:31;;;;;;;;;;;;;;;-1.70;73.42;95583.06;5015058;28;1046;-45
2021/12/19 06:38:58;;;;;;;;;;;;;;;-1.44;71.03;95584.34;5014726;28;1109;-45
2021/12/19 06:41:24;;;;;;;;;;;;;;;-1.26;71.54;95572.91;5014948;28;1126;-45
2021/12/19 06:43:52;;;;;;;;;;;;;;;-1.32;71.60;95583.72;5014518;28;1204;-45
2021/12/19 06:46:18;;;;;;;;;;;;;;;-1.43;71.99;95586.88;5014709;28;1910;-46
2021/12/19 06:48:45;;;;;;;;;;;;;;;-1.41;72.33;95586.81;5014802;28;1029;-45
2021/12/19 06:51:11;;;;;;;;;;;;;;;-1.40;72.32;95586.75;5014810;28;978;-45
2021/12/19 06:53:37;;;;;;;;;;;;;;;-1.26;73.46;95583.41;5014784;28;1056;-46
2021/12/19 06:56:04;;;;;;;;;;;;;;;-1.31;73.51;95589.81;5014840;28;1056;-46
2021/12/19 06:58:30;;;;;;;;;;;;;;;-1.40;73.62;95588.53;5014462;28;1049;-46
2021/12/19 07:00:57;;;;;;;;;;;;;;;-1.25;73.39;95590.38;5014491;28;971;-46
2021/12/19 07:03:24;;;;;;;;;;;;;;;-1.11;71.66;95583.56;5014355;28;1975;-46
2021/12/19 07:05:50;;;;;;;;;;;;;;;-1.05;73.55;95585.84;5014557;28;1050;-45
2021/12/19 07:08:17;;;;;;;;;;;;;;;-0.87;73.55;95587.53;5014392;28;2008;-46
2021/12/19 07:10:43;;;;;;;;;;;;;;;-0.80;73.50;95588.03;5014261;28;1273;-46
2021/12/19 07:13:10;;;;;;;;;;;;;;;-0.74;72.26;95587.72;5014098;28;1467;-45
2021/12/19 07:15:36;;;;;;;;;;;;;;;-0.66;72.11;95576.81;5014067;28;979;-46
2021/12/19 07:18:04;;;;;;;;;;;;;;;-0.68;70.52;95579.50;5014195;28;1138;-46
2021/12/19 07:20:30;;;;;;;;;;;;;;;-0.52;71.48;95570.81;5014198;28;1026;-46
2021/12/19 07:22:57;;;;;;;;;;;;;;;-0.43;70.90;95576.41;5014111;28;1038;-46
2021/12/19 07:25:23;;;;;;;;;;;;;;;-0.24;69.80;95581.47;5014475;28;1241;-45
2021/12/19 07:27:50;;;;;;;;;;;;;;;-0.13;69.12;95574.78;5014131;28;1987;-46
2021/12/19 07:30:16;;;;;;;;;;;;;;;0.02;68.73;95573.06;5013813;28;990;-46
2021/12/19 07:32:42;;;;;;;;;;;;;;;0.07;67.11;95571.88;5014196;28;1037;-46
2021/12/19 07:35:10;;;;;;;;;;;;;;;-0.06;67.41;95579.63;5014001;28;990;-46
2021/12/19 07:37:37;;;;;;;;;;;;;;;-0.29;66.77;95572.16;5013527;28;1038;-46
2021/12/19 07:40:15;;;;;;;;;;;;;;;-0.25;68.82;95577.19;5014055;28;1006;-46
2021/12/19 07:42:42;;;;;;;;;;;;;;;-0.13;69.00;95574.78;5013864;28;970;-46
2021/12/19 07:45:10;;;;;;;;;;;;;;;-0.24;68.56;95564.88;5013701;28;1101;-46
2021/12/19 07:47:40;;;;;;;;;;;;;;;-0.25;68.92;95569.28;5014092;28;1992;-46
2021/12/19 07:50:07;;;;;;;;;;;;;;;-0.15;68.29;95563.50;5014032;28;1234;-46
2021/12/19 07:52:34;;;;;;;;;;;;;;;-0.09;68.57;95573.69;5014093;28;1037;-46
2021/12/19 07:55:01;;;;;;;;;;;;;;;-0.15;68.23;95576.63;5014056;28;1018;-51
2021/12/19 07:57:27;;;;;;;;;;;;;;;0.00;68.06;95565.28;5013617;28;1895;-45
2021/12/19 07:59:53;;;;;;;;;;;;;;;-0.05;67.77;95565.53;5013509;28;1317;-46
2021/12/19 08:02:19;;;;;;;;;;;;;;;0.18;68.73;95568.66;5013674;28;1219;-45
2021/12/19 08:04:46;;;;;;;;;;;;;;;0.18;67.76;95563.38;5013826;28;1042;-45
2021/12/19 08:07:13;;;;;;;;;;;;;;;0.22;66.88;95562.25;5013828;28;1991;-45
2021/12/19 08:09:56;;;;;;;;;;;;;;;0.18;67.45;95566.84;5013875;28;1032;-46
2021/12/19 08:12:22;;;;;;;;;;;;;;;0.39;67.35;95563.91;5013849;28;1002;-46
2021/12/19 08:14:49;;;;;;;;;;;;;;;0.56;67.12;95557.69;5013363;28;1233;-46
2021/12/19 08:17:17;;;;;;;;;;;;;;;0.56;65.86;95562.94;5013665;28;1017;-45
2021/12/19 08:23:00;;;;;;;;;;;;;;;0.74;65.94;95566.25;4974797;28;1061;-45
2021/12/19 08:25:26;;;;;;;;;;;;;;;0.69;65.37;95552.53;4976975;28;1305;-45
2021/12/19 08:27:53;;;;;;;;;;;;;;;0.80;66.08;95551.88;4993742;28;1850;-45
2021/12/19 08:30:20;;;;;;;;;;;;;;;1.13;63.55;95544.56;4993988;28;1033;-45
2021/12/19 08:32:47;;;;;;;;;;;;;;;1.64;62.01;95554.59;4993934;28;979;-46
2021/12/19 08:35:13;;;;;;;;;;;;;;;2.27;59.98;95547.06;4994075;28;1034;-45
2021/12/19 08:37:39;;;;;;;;;;;;;;;2.43;59.64;95538.97;4993964;28;1899;-46
2021/12/19 08:40:09;;;;;;;;;;;;;;;2.22;59.70;95544.75;4994106;28;1140;-46
2021/12/19 08:42:36;;;;;;;;;;;;;;;2.18;59.24;95537.97;4993621;28;1862;-46
2021/12/19 08:45:02;;;;;;;;;;;;;;;2.14;59.67;95531.19;4993857;28;1045;-45
2021/12/19 08:47:28;;;;;;;;;;;;;;;2.11;61.23;95524.34;4995434;28;982;-46
2021/12/19 08:49:54;;;;;;;;;;;;;;;2.29;59.59;95524.06;4997121;28;1052;-46
2021/12/19 08:52:20;;;;;;;;;;;;;;;2.54;59.11;95520.63;4997238;28;1097;-46
2021/12/19 08:54:46;;;;;;;;;;;;;;;2.78;58.24;95517.28;4997215;28;1486;-46
2021/12/19 08:57:12;;;;;;;;;;;;;;;2.91;58.07;95510.22;4996813;28;1983;-47
2021/12/19 08:59:38;;;;;;;;;;;;;;;2.65;59.56;95499.63;4997210;28;1053;-46
2021/12/19 09:02:04;;;;;;;;;;;;;;;2.33;60.48;95496.53;4997291;28;1059;-46
2021/12/19 09:04:31;;;;;;;;;;;;;;;2.09;60.40;95493.75;4997201;28;979;-46
2021/12/19 09:06:58;;;;;;;;;;;;;;;2.12;61.53;95486.44;4997010;28;1220;-46
2021/12/19 09:09:24;;;;;;;;;;;;;;;2.10;60.53;95488.34;4997104;28;1037;-46
2021/12/19 09:11:50;;;;;;;;;;;;;;;2.38;60.86;95481.25;4996873;28;1057;-46
2021/12/19 09:14:16;;;;;;;;;;;;;;;2.48;58.61;95481.47;4996889;28;1065;-46
2021/12/19 09:16:42;;;;;;;;;;;;;;;2.96;58.33;95480.84;4996956;28;1991;-46
2021/12/19 09:19:08;;;;;;;;;;;;;;;3.18;57.06;95477.56;4997023;28;1041;-46
2021/12/19 09:21:34;;;;;;;;;;;;;;;2.79;58.07;95469.66;5013568;28;1126;-46
2021/12/19 09:24:00;;;;;;;;;;;;;;;2.74;58.76;95472.59;5036293;28;1038;-46
2021/12/19 09:26:26;;;;;;;;;;;;;;;3.04;58.10;95473.25;5025556;28;1325;-46
2021/12/19 09:28:52;;;;;;;;;;;;;;;3.22;57.85;95461.34;5016106;28;1046;-45
2021/12/19 09:31:20;;;;;;;;;;;;;;;3.33;57.69;95455.31;5016336;28;1037;-46
2021/12/19 09:33:47;;;;;;;;;;;;;;;3.67;56.31;95448.44;5015904;28;1282;-46
2021/12/19 09:36:13;;;;;;;;;;;;;;;3.70;57.79;95450.03;5016331;28;1911;-45
2021/12/19 09:38:41;;;;;;;;;;;;;;;3.68;57.65;95443.97;5016061;28;1025;-46
2021/12/19 09:41:12;;;;;;;;;;;;;;;3.70;57.85;95442.09;5015687;28;1097;-46
2021/12/19 09:43:41;;;;;;;;;;;;;;;3.77;56.09;95431.91;5016449;28;1045;-46
2021/12/19 09:46:12;;;;;;;;;;;;;;;4.43;56.72;95433.09;5016046;28;1029;-46
2021/12/19 09:48:39;;;;;;;;;;;;;;;4.59;54.57;95424.84;5014873;28;1025;-45
2021/12/19 09:51:05;;;;;;;;;;;;;;;4.25;56.07;95418.59;5029801;28;1531;-45
2021/12/19 09:53:32;;;;;;;;;;;;;;;4.02;57.42;95415.03;5035882;28;1293;-46
2021/12/19 09:55:58;;;;;;;;;;;;;;;4.03;56.68;95414.94;5035507;28;1404;-46
2021/12/19 09:58:24;;;;;;;;;;;;;;;4.27;56.80;95406.97;5026531;28;1997;-45
2021/12/19 10:00:53;;;;;;;;;;;;;;;6.54;51.04;95394.16;5016631;28;1002;-46
2021/12/19 10:03:19;;;;;;;;;;;;;;;8.94;46.13;95396.69;5016721;28;1031;-46
2021/12/19 10:05:45;;;;;;;;;;;;;;;8.14;46.27;95396.09;5016931;28;994;-46
2021/12/19 10:08:21;;;;;;;;;;;;;;;6.66;49.76;95385.16;5016533;28;1050;-47
2021/12/19 10:10:55;;;;;;;;;;;;;;;5.39;51.08;95384.13;5016559;28;1226;-46
2021/12/19 10:13:35;;;;;;;;;;;;;;;4.52;54.64;95383.06;5017240;28;1051;-46
2021/12/19 10:16:02;;;;;;;;;;;;;;;3.82;56.77;95368.94;5016735;28;1049;-46
2021/12/19 10:18:28;;;;;;;;;;;;;;;3.49;57.43;95373.09;5016359;28;1910;-46
2021/12/19 10:20:58;;;;;;;;;;;;;;;3.40;57.04;95368.50;5016096;28;1288;-46
2021/12/19 10:23:26;;;;;;;;;;;;;;;3.31;59.09;95370.00;5016657;28;1097;-47
2021/12/19 10:25:58;;;;;;;;;;;;;;;3.20;57.52;95360.22;5016204;28;1049;-46
2021/12/19 10:28:24;;;;;;;;;;;;;;;3.17;56.76;95351.66;5016132;28;1034;-46
2021/12/19 10:30:50;;;;;;;;;;;;;;;3.15;58.29;95359.72;5016232;28;1050;-46
2021/12/19 10:33:22;;;;;;;;;;;;;;;3.04;58.30;95349.91;5015779;28;982;-46
2021/12/19 10:35:59;;;;;;;;;;;;;;;3.05;59.40;95345.47;5014834;28;1037;-46
2021/12/19 10:38:25;;;;;;;;;;;;;;;3.11;59.29;95337.09;5014604;28;1910;-46
2021/12/19 10:41:01;;;;;;;;;;;;;;;3.32;58.88;95329.44;5015092;28;1005;-46
2021/12/19 10:43:31;;;;;;;;;;;;;;;3.30;58.88;95320.75;5014865;28;1039;-46
2021/12/19 10:45:59;;;;;;;;;;;;;;;3.37;57.83;95321.16;5015903;28;989;-46
2021/12/19 10:48:26;;;;;;;;;;;;;;;3.24;58.44;95310.63;5023288;28;1763;-46
2021/12/19 10:50:56;;;;;;;;;;;;;;;3.55;58.39;95308.34;5034549;28;1299;-45
2021/12/19 10:53:29;;;;;;;;;;;;;;;3.67;57.45;95305.63;5034858;28;1009;-46
2021/12/19 10:55:56;;;;;;;;;;;;;;;3.66;57.66;95305.75;5032174;28;1752;-46
2021/12/19 10:58:31;;;;;;;;;;;;;;;3.80;58.02;95307.38;5033167;28;1987;-46
2021/12/19 11:01:06;;;;;;;;;;;;;;;4.03;56.43;95303.81;5013343;28;1050;-46
2021/12/19 11:03:33;;;;;;;;;;;;;;;4.11;54.33;95305.88;5022655;28;2935;-46
2021/12/19 11:05:59;;;;;;;;;;;;;;;4.82;54.92;95306.50;5027889;28;1552;-50
2021/12/19 11:08:31;;;;;;;;;;;;;;;5.37;54.35;95300.34;5030105;28;1785;-46
2021/12/19 11:10:57;;;;;;;;;;;;;;;5.04;54.38;95292.34;5031142;28;1732;-46
2021/12/19 11:13:24;;;;;;;;;;;;;;;4.55;54.07;95293.63;5034863;28;1086;-46
2021/12/19 11:15:50;;;;;;;;;;;;;;;4.28;54.25;95288.69;5034296;28;1320;-46
2021/12/19 11:18:16;;;;;;;;;;;;;;;4.31;55.13;95285.81;5034575;28;1995;-46
2021/12/19 11:20:42;;;;;;;;;;;;;;;4.52;55.70;95277.16;5034280;28;1631;-46
2021/12/19 11:23:08;;;;;;;;;;;;;;;4.67;55.12;95281.22;5034695;28;1017;-46
2021/12/19 11:25:35;;;;;;;;;;;;;;;4.57;55.04;95264.38;5032929;28;1716;-45
2021/12/19 11:28:01;;;;;;;;;;;;;;;4.47;55.75;95251.84;5025275;28;1612;-46
2021/12/19 11:30:29;;;;;;;;;;;;;;;4.69;57.08;95250.16;5032989;28;1614;-46
2021/12/19 11:33:13;;;;;;;;;;;;;;;4.82;54.82;95248.22;5033961;28;1077;-46
2021/12/19 11:35:44;;;;;;;;;;;;;;;4.91;55.54;95236.00;5034351;28;965;-46
2021/12/19 11:38:12;;;;;;;;;;;;;;;4.94;55.99;95234.94;5033546;28;1957;-46
2021/12/19 11:40:38;;;;;;;;;;;;;;;5.00;56.04;95232.63;5034264;28;1257;-46
2021/12/19 11:43:10;;;;;;;;;;;;;;;5.18;55.94;95225.00;5034401;28;1018;-46
2021/12/19 11:45:43;;;;;;;;;;;;;;;5.14;55.49;95215.59;5034230;28;955;-46
2021/12/19 11:48:28;;;;;;;;;;;;;;;5.20;53.73;95215.09;5034244;28;1893;-47
2021/12/19 11:51:03;;;;;;;;;;;;;;;5.06;53.35;95196.81;5034057;28;1113;-46
2021/12/19 11:53:43;;;;;;;;;;;;;;;5.18;55.15;95194.97;5033441;28;1744;-46
2021/12/19 11:56:14;;;;;;;;;;;;;;;5.20;55.58;95188.59;5032793;28;1984;-45
2021/12/19 11:58:50;;;;;;;;;;;;;;;5.20;56.52;95191.25;5031601;28;1633;-47
2021/12/19 12:01:23;;;;;;;;;;;;;;;5.24;55.89;95194.47;5033258;28;1614;-47
2021/12/19 12:03:53;;;;;;;;;;;;;;;5.07;56.75;95188.75;5032984;28;1665;-46
2021/12/19 12:06:22;;;;;;;;;;;;;;;4.86;56.14;95199.31;5036831;28;1173;-46
2021/12/19 12:09:05;;;;;;;;;;;;;;;4.81;57.33;95192.69;5033329;28;1113;-45
2021/12/19 12:11:31;;;;;;;;;;;;;;;4.68;56.96;95193.69;5033776;28;1156;-46
2021/12/19 12:14:16;;;;;;;;;;;;;;;4.41;55.22;95191.47;5032723;28;1175;-46
2021/12/19 12:16:50;;;;;;;;;;;;;;;4.37;56.31;95187.38;5031045;28;1914;-45
2021/12/19 12:19:16;;;;;;;;;;;;;;;4.53;57.52;95180.84;5032623;28;1775;-46
2021/12/19 12:21:48;;;;;;;;;;;;;;;4.76;56.77;95177.19;5034034;28;1349;-46
2021/12/19 12:24:17;;;;;;;;;;;;;;;4.83;57.41;95175.72;5037964;28;958;-46
2021/12/19 12:26:49;;;;;;;;;;;;;;;4.83;58.07;95169.56;5037685;28;1050;-46
2021/12/19 12:29:15;;;;;;;;;;;;;;;4.75;58.24;95161.44;5037647;28;1105;-46
2021/12/19 12:31:43;;;;;;;;;;;;;;;4.71;57.80;95168.78;5037393;28;1098;-46
2021/12/19 12:34:11;;;;;;;;;;;;;;;4.71;57.73;95160.81;5037605;28;1138;-46
2021/12/19 12:36:38;;;;;;;;;;;;;;;4.61;58.56;95158.09;5037087;28;2031;-46
2021/12/19 12:39:09;;;;;;;;;;;;;;;4.43;60.23;95154.28;5036897;28;1792;-46
2021/12/19 12:44:08;;;;;;;;;;;;;;;4.59;58.30;95144.13;5032777;28;1022;-46
2021/12/19 12:46:35;;;;;;;;;;;;;;;4.57;58.48;95132.84;5036783;28;987;-46
2021/12/19 12:49:01;;;;;;;;;;;;;;;4.59;58.13;95130.03;5036568;28;1054;-46
2021/12/19 12:51:28;;;;;;;;;;;;;;;4.55;59.39;95129.44;5036611;28;1757;-45
2021/12/19 12:54:02;;;;;;;;;;;;;;;4.55;58.45;95118.84;5036685;28;1601;-46
2021/12/19 12:56:33;;;;;;;;;;;;;;;4.42;58.06;95115.50;5032665;28;2422;-45
2021/12/19 12:58:59;;;;;;;;;;;;;;;4.21;56.62;95111.00;5036017;28;1739;-45
2021/12/19 13:01:28;;;;;;;;;;;;;;;4.13;56.48;95118.72;5036987;28;1038;-45
2021/12/19 13:03:54;;;;;;;;;;;;;;;4.20;57.22;95106.66;5036944;28;1034;-45
2021/12/19 13:06:39;;;;;;;;;;;;;;;4.17;58.17;95109.56;5037129;28;1884;-45
2021/12/19 13:09:12;;;;;;;;;;;;;;;4.07;58.67;95109.44;5032778;28;2643;-45
2021/12/19 13:11:39;;;;;;;;;;;;;;;3.99;58.13;95105.75;5021647;28;1184;-45
2021/12/19 13:14:13;;;;;;;;;;;;;;;4.05;59.74;95108.72;5025090;28;2408;-45
2021/12/19 13:16:48;;;;;;;;;;;;;;;4.06;57.99;95104.28;5036257;28;1902;-45
2021/12/19 13:19:32;;;;;;;;;;;;;;;4.13;58.28;95107.28;5034874;28;1854;-44
2021/12/19 13:21:59;;;;;;;;;;;;;;;4.15;58.47;95108.84;5028479;28;1445;-45
2021/12/19 13:24:25;;;;;;;;;;;;;;;4.28;58.60;95103.41;5035309;28;1980;-45
2021/12/19 13:27:03;;;;;;;;;;;;;;;4.33;57.73;95101.25;5035671;28;1737;-44
2021/12/19 13:29:30;;;;;;;;;;;;;;;4.26;58.04;95098.22;5035808;28;1047;-45
2021/12/19 13:32:15;;;;;;;;;;;;;;;4.26;58.43;95089.47;5036827;28;1057;-44
2021/12/19 13:34:41;;;;;;;;;;;;;;;4.25;58.98;95082.47;5035727;28;1042;-44
2021/12/19 13:37:07;;;;;;;;;;;;;;;4.19;59.67;95086.47;5036243;28;1989;-45
2021/12/19 13:39:33;;;;;;;;;;;;;;;4.13;59.57;95086.13;5036709;28;1570;-45
2021/12/19 13:42:10;;;;;;;;;;;;;;;4.10;58.79;95087.22;5036837;28;947;-45
2021/12/19 13:44:36;;;;;;;;;;;;;;;4.09;59.15;95081.06;5036840;28;1077;-44
2021/12/19 13:47:22;;;;;;;;;;;;;;;3.98;59.07;95082.91;5035431;28;955;-45
2021/12/19 13:49:49;;;;;;;;;;;;;;;3.90;59.60;95078.22;5034824;28;1106;-46
2021/12/19 13:52:16;;;;;;;;;;;;;;;3.98;60.78;95080.25;5034727;28;1005;-46
2021/12/19 13:54:42;;;;;;;;;;;;;;;4.04;59.72;95072.69;5034182;28;1045;-45
2021/12/19 13:57:20;;;;;;;;;;;;;;;4.08;59.72;95073.28;5033902;28;1906;-46
2021/12/19 13:59:48;;;;;;;;;;;;;;;4.03;59.70;95070.97;5034399;28;992;-46
2021/12/19 14:02:14;;;;;;;;;;;;;;;4.05;58.93;95069.03;5035205;28;1050;-45
2021/12/19 14:04:41;;;;;;;;;;;;;;;4.11;57.84;95060.59;5034862;28;1042;-45
2021/12/19 14:07:13;;;;;;;;;;;;;;;4.11;58.31;95054.47;5034921;28;1081;-45
2021/12/19 14:09:43;;;;;;;;;;;;;;;4.07;58.52;95061.81;5034768;28;1058;-45
2021/12/19 14:12:27;;;;;;;;;;;;;;;4.08;59.22;95066.16;5035090;28;1191;-45
2021/12/19 14:14:53;;;;;;;;;;;;;;;4.12;61.41;95056.19;5034623;28;1077;-45
2021/12/19 14:17:28;;;;;;;;;;;;;;;4.10;59.77;95042.25;5034106;28;1906;-46
2021/12/19 14:20:00;;;;;;;;;;;;;;;4.10;58.60;95047.53;5034486;28;1088;-45